Time;durP1;ratioP1;P1;durP2;ratioP2;P2;SDS_P1;SDS_P2;PMS_P1;PMS_P2;Temp;Humidity;BMP_temperature;BMP_pressure;BME280_temperature;BME280_humidity;BME280_pressure;Samples;Min_cycle;Max_cycle;Signal;HPM_P1;HPM_P2
2020/12/20 00:01:01;;;;;;;10.82;7.88;;;8.00;84.10;;;;;;4993568;28;20352;-84
2020/12/20 00:03:28;;;;;;;8.10;7.30;;;7.90;84.20;;;;;;4994275;28;20194;-81
2020/12/20 00:05:54;;;;;;;9.73;8.88;;;7.90;84.70;;;;;;4994353;28;20202;-84
2020/12/20 00:08:21;;;;;;;8.13;7.32;;;7.90;85.10;;;;;;4993329;28;20531;-84
2020/12/20 00:10:47;;;;;;;10.10;9.05;;;7.90;85.20;;;;;;4994027;28;20198;-84
2020/12/20 00:13:17;;;;;;;9.38;7.45;;;8.30;85.50;;;;;;4994722;28;20256;-83
2020/12/20 00:15:44;;;;;;;8.45;7.63;;;7.80;85.30;;;;;;4989757;28;20202;-84
2020/12/20 00:18:11;;;;;;;9.13;8.02;;;7.90;85.70;;;;;;4994656;28;20213;-83
2020/12/20 00:20:37;;;;;;;11.77;9.30;;;7.90;85.40;;;;;;4994622;28;20253;-84
2020/12/20 00:23:04;;;;;;;9.50;8.52;;;7.90;85.30;;;;;;4993852;28;20218;-84
2020/12/20 00:25:30;;;;;;;10.93;9.93;;;7.90;85.40;;;;;;4993210;28;20236;-84
2020/12/20 00:27:57;;;;;;;9.90;8.77;;;8.20;85.50;;;;;;4994534;28;20623;-84
2020/12/20 00:30:23;;;;;;;11.18;9.65;;;7.90;85.20;;;;;;4994194;28;20233;-84
2020/12/20 00:32:51;;;;;;;10.77;8.45;;;7.90;85.10;;;;;;4994185;28;20225;-84
2020/12/20 00:35:18;;;;;;;8.48;7.60;;;7.90;85.30;;;;;;4993789;28;20592;-84
2020/12/20 00:37:45;;;;;;;8.70;8.00;;;7.90;85.40;;;;;;4993267;28;20233;-83
2020/12/20 00:40:11;;;;;;;12.25;7.90;;;7.80;85.50;;;;;;4993551;28;20253;-84
2020/12/20 00:42:38;;;;;;;9.65;8.75;;;7.60;85.60;;;;;;4994629;28;20233;-84
2020/12/20 00:45:04;;;;;;;8.30;7.47;;;7.60;86.00;;;;;;4993148;28;20233;-84
2020/12/20 00:47:31;;;;;;;9.57;8.60;;;7.70;86.30;;;;;;4994248;28;20626;-84
2020/12/20 00:49:58;;;;;;;9.15;8.25;;;7.70;86.60;;;;;;4993517;28;20202;-85
2020/12/20 00:52:25;;;;;;;8.75;7.88;;;7.80;85.90;;;;;;4993840;28;20202;-84
2020/12/20 00:54:51;;;;;;;10.82;8.20;;;8.60;86.80;;;;;;4992890;28;20225;-84
2020/12/20 00:57:17;;;;;;;9.88;8.88;;;7.80;86.80;;;;;;4993432;28;20595;-84
2020/12/20 00:59:44;;;;;;;9.88;8.85;;;7.80;87.50;;;;;;4993719;28;20241;-84
2020/12/20 01:02:10;;;;;;;11.30;9.10;;;7.70;87.60;;;;;;4993907;28;20225;-83
2020/12/20 01:04:37;;;;;;;10.32;9.32;;;7.70;87.30;;;;;;4992456;28;20194;-84
2020/12/20 01:07:04;;;;;;;10.52;9.38;;;7.70;87.00;;;;;;4993172;28;20237;-84
2020/12/20 01:09:31;;;;;;;13.77;10.60;;;7.70;87.20;;;;;;4992099;28;20201;-84
2020/12/20 01:11:59;;;;;;;10.05;8.27;;;7.80;88.00;;;;;;4993230;28;20198;-84
2020/12/20 01:14:25;;;;;;;10.35;9.35;;;7.70;87.10;;;;;;4992813;28;20202;-84
2020/12/20 01:16:52;;;;;;;9.40;8.48;;;7.80;87.00;;;;;;4993430;28;20288;-83
2020/12/20 01:19:18;;;;;;;12.02;10.35;;;7.70;87.40;;;;;;4992828;28;20222;-83
2020/12/20 01:21:45;;;;;;;11.50;10.15;;;7.80;87.80;;;;;;4974042;28;20211;-84
2020/12/20 01:24:13;;;;;;;11.52;10.23;;;7.80;87.40;;;;;;4986529;28;20614;-84
2020/12/20 01:26:39;;;;;;;15.80;11.82;;;7.80;87.20;;;;;;4992655;28;20675;-84
2020/12/20 01:29:06;;;;;;;18.05;13.35;;;7.90;87.20;;;;;;4992791;28;20213;-85
2020/12/20 01:31:32;;;;;;;19.55;11.80;;;7.90;86.80;;;;;;4993347;28;20277;-84
2020/12/20 01:34:00;;;;;;;23.42;14.55;;;8.00;87.30;;;;;;4992376;28;20596;-82
2020/12/20 01:36:27;;;;;;;12.88;11.10;;;8.00;86.00;;;;;;4992909;28;20206;-84
2020/12/20 01:38:54;;;;;;;14.90;11.43;;;8.00;86.10;;;;;;4992868;28;20237;-84
2020/12/20 01:41:21;;;;;;;18.25;10.23;;;8.00;87.20;;;;;;4992398;28;20676;-84
2020/12/20 01:43:49;;;;;;;12.45;9.45;;;8.00;86.90;;;;;;4992081;28;20198;-84
2020/12/20 01:46:16;;;;;;;16.60;9.68;;;7.90;86.70;;;;;;4992861;28;20207;-84
2020/12/20 01:48:44;;;;;;;9.27;8.32;;;7.80;87.80;;;;;;4992270;28;20206;-84
2020/12/20 01:51:11;;;;;;;13.40;8.38;;;7.90;86.60;;;;;;4992811;28;20259;-84
2020/12/20 01:53:39;;;;;;;10.18;8.10;;;7.80;87.60;;;;;;4991936;28;20226;-84
2020/12/20 01:56:06;;;;;;;9.68;7.88;;;8.20;87.90;;;;;;4991680;28;20198;-84
2020/12/20 01:58:37;;;;;;;16.13;8.98;;;7.90;87.50;;;;;;4992035;28;20222;-84
2020/12/20 02:01:04;;;;;;;13.88;10.00;;;7.60;86.70;;;;;;4992095;28;20249;-83
2020/12/20 02:03:32;;;;;;;12.23;9.32;;;7.70;87.80;;;;;;4991256;28;20217;-84
2020/12/20 02:06:00;;;;;;;10.90;9.43;;;7.90;88.10;;;;;;4992435;28;20640;-84
2020/12/20 02:08:27;;;;;;;9.27;8.35;;;8.00;87.90;;;;;;4991290;28;20726;-84
2020/12/20 02:11:08;;;;;;;12.73;8.93;;;8.30;88.80;;;;;;4992080;28;20210;-83
2020/12/20 02:13:44;;;;;;;8.82;7.60;;;8.00;88.00;;;;;;4991183;28;20198;-83
2020/12/20 02:16:12;;;;;;;8.73;7.82;;;8.00;88.50;;;;;;4990084;28;20209;-84
2020/12/20 02:18:41;;;;;;;8.98;8.10;;;8.00;88.10;;;;;;4992183;28;20647;-84
2020/12/20 02:21:14;;;;;;;9.73;7.75;;;8.00;87.40;;;;;;4992249;28;20228;-83
2020/12/20 02:23:43;;;;;;;9.20;7.55;;;8.10;87.00;;;;;;4991609;28;20289;-83
2020/12/20 02:26:11;;;;;;;9.23;8.27;;;8.00;86.00;;;;;;4989374;28;20216;-83
2020/12/20 02:28:39;;;;;;;8.73;7.57;;;7.80;86.20;;;;;;4988504;28;20206;-83
2020/12/20 02:31:07;;;;;;;8.75;7.95;;;7.90;86.90;;;;;;4989480;28;20682;-83
2020/12/20 02:33:36;;;;;;;8.50;7.80;;;8.10;86.50;;;;;;4989596;28;20201;-83
2020/12/20 02:36:04;;;;;;;8.70;7.90;;;7.90;86.50;;;;;;4989516;28;20312;-83
2020/12/20 02:38:33;;;;;;;10.05;8.68;;;8.00;86.50;;;;;;4989981;28;20297;-83
2020/12/20 02:40:59;;;;;;;10.93;9.10;;;8.40;87.50;;;;;;4991155;28;20345;-83
2020/12/20 02:43:26;;;;;;;9.65;8.43;;;8.00;86.50;;;;;;4991251;28;20226;-83
2020/12/20 02:45:52;;;;;;;9.35;8.30;;;8.00;86.40;;;;;;4991016;28;20202;-83
2020/12/20 02:48:19;;;;;;;10.02;8.50;;;7.90;87.20;;;;;;4991384;28;20222;-83
2020/12/20 02:50:45;;;;;;;10.13;8.07;;;7.80;86.60;;;;;;4991002;28;20205;-85
2020/12/20 02:53:12;;;;;;;9.95;8.98;;;7.80;86.70;;;;;;4991280;28;20721;-83
2020/12/20 02:55:39;;;;;;;9.38;8.40;;;7.90;86.50;;;;;;4990681;28;20220;-83
2020/12/20 02:58:05;;;;;;;12.25;8.25;;;7.80;86.30;;;;;;4991144;28;20239;-83
2020/12/20 03:00:34;;;;;;;9.57;8.68;;;7.90;86.60;;;;;;4990099;28;20230;-84
2020/12/20 03:03:00;;;;;;;8.90;8.02;;;7.70;86.80;;;;;;4991166;28;20247;-83
2020/12/20 03:05:27;;;;;;;9.00;8.05;;;7.70;87.20;;;;;;4990898;28;20225;-83
2020/12/20 03:07:53;;;;;;;9.07;8.27;;;7.80;86.80;;;;;;4990154;28;20202;-84
2020/12/20 03:10:20;;;;;;;10.43;8.52;;;7.80;87.00;;;;;;4990792;28;20658;-83
2020/12/20 03:12:47;;;;;;;8.93;8.02;;;7.80;86.70;;;;;;4988940;28;20237;-83
2020/12/20 03:15:13;;;;;;;9.40;8.50;;;7.90;86.30;;;;;;4990198;28;20230;-83
2020/12/20 03:17:40;;;;;;;10.40;9.40;;;8.10;86.90;;;;;;4990940;28;20195;-83
2020/12/20 03:20:07;;;;;;;9.75;8.75;;;7.70;86.70;;;;;;4990926;28;20256;-83
2020/12/20 03:22:33;;;;;;;9.25;8.35;;;7.60;86.60;;;;;;4990531;28;20206;-83
2020/12/20 03:25:00;;;;;;;9.63;8.18;;;8.00;87.60;;;;;;4990475;28;20249;-83
2020/12/20 03:27:26;;;;;;;10.48;8.25;;;7.30;87.80;;;;;;4989115;28;20193;-83
2020/12/20 03:29:54;;;;;;;8.98;8.07;;;7.40;87.90;;;;;;4990325;28;20256;-83
2020/12/20 03:32:20;;;;;;;11.93;10.05;;;7.30;87.70;;;;;;4971934;28;20207;-83
2020/12/20 03:34:46;;;;;;;9.48;8.57;;;7.30;88.10;;;;;;4988789;28;20564;-82
2020/12/20 03:37:13;;;;;;;9.73;8.73;;;7.20;88.60;;;;;;4990595;28;20217;-83
2020/12/20 03:39:39;;;;;;;11.85;9.80;;;7.20;88.60;;;;;;4989486;28;20229;-83
2020/12/20 03:42:06;;;;;;;8.68;7.80;;;7.30;88.80;;;;;;4971820;28;20277;-83
2020/12/20 03:44:32;;;;;;;10.95;9.85;;;7.30;88.90;;;;;;4987851;28;20256;-83
2020/12/20 03:47:00;;;;;;;9.40;8.50;;;7.40;88.90;;;;;;4991043;28;20194;-84
2020/12/20 03:49:26;;;;;;;9.80;8.80;;;7.40;89.10;;;;;;4990462;28;20198;-83
2020/12/20 03:51:52;;;;;;;10.65;8.70;;;7.40;89.30;;;;;;4990815;28;20229;-83
2020/12/20 03:54:19;;;;;;;10.80;9.65;;;7.40;89.10;;;;;;4990656;28;20284;-83
2020/12/20 03:56:45;;;;;;;11.13;9.98;;;7.60;89.20;;;;;;4990382;28;20225;-83
2020/12/20 03:59:11;;;;;;;9.85;8.85;;;7.60;89.10;;;;;;4990552;28;20222;-83
2020/12/20 04:01:38;;;;;;;10.27;9.20;;;7.70;89.40;;;;;;4991200;28;20230;-83
2020/12/20 04:04:06;;;;;;;10.75;9.40;;;7.60;89.40;;;;;;4989216;28;20289;-83
2020/12/20 04:06:35;;;;;;;10.50;9.45;;;8.00;89.50;;;;;;4991113;28;20248;-83
2020/12/20 04:09:02;;;;;;;10.18;9.23;;;7.70;89.10;;;;;;4990455;28;20190;-83
2020/12/20 04:11:29;;;;;;;10.00;8.98;;;7.80;89.20;;;;;;4990999;28;20285;-83
2020/12/20 04:13:55;;;;;;;12.27;10.32;;;7.80;89.00;;;;;;4989779;28;20209;-83
2020/12/20 04:16:22;;;;;;;11.60;8.90;;;7.80;89.20;;;;;;4990988;28;20281;-83
2020/12/20 04:18:48;;;;;;;10.90;9.80;;;7.60;89.60;;;;;;4990216;28;20198;-83
2020/12/20 04:21:16;;;;;;;12.18;9.27;;;7.70;90.20;;;;;;4990596;28;20308;-84
2020/12/20 04:23:44;;;;;;;9.63;8.63;;;7.70;90.20;;;;;;4993588;28;20305;-83
2020/12/20 04:26:10;;;;;;;10.10;9.10;;;7.80;90.20;;;;;;4990387;28;20232;-83
2020/12/20 04:28:37;;;;;;;12.30;9.30;;;7.80;90.20;;;;;;4989771;28;20216;-83
2020/12/20 04:31:04;;;;;;;18.73;14.30;;;7.80;90.40;;;;;;4989838;28;20205;-83
2020/12/20 04:33:30;;;;;;;19.05;14.77;;;7.80;90.50;;;;;;4989964;28;20687;-83
2020/12/20 04:35:57;;;;;;;17.40;13.63;;;7.70;90.50;;;;;;4990369;28;20194;-83
2020/12/20 04:38:24;;;;;;;14.45;11.55;;;7.80;90.60;;;;;;4991830;28;20200;-84
2020/12/20 04:40:51;;;;;;;11.65;9.98;;;7.90;90.40;;;;;;4993172;28;20241;-84
2020/12/20 04:43:21;;;;;;;10.68;9.57;;;7.90;90.20;;;;;;4994585;28;20249;-83
2020/12/20 04:45:51;;;;;;;10.50;8.90;;;8.00;90.10;;;;;;4992932;28;20252;-84
2020/12/20 04:48:19;;;;;;;9.45;8.55;;;7.80;90.00;;;;;;4994059;28;20190;-84
2020/12/20 04:50:48;;;;;;;10.27;8.98;;;7.70;89.60;;;;;;4993361;28;20672;-84
2020/12/20 04:53:15;;;;;;;10.77;8.65;;;7.80;90.00;;;;;;4993297;28;20194;-83
2020/12/20 04:55:45;;;;;;;8.63;7.82;;;7.80;89.90;;;;;;4993365;28;20261;-83
2020/12/20 04:58:17;;;;;;;11.27;9.50;;;7.80;89.80;;;;;;4993375;28;20261;-83
2020/12/20 05:00:46;;;;;;;9.50;8.60;;;7.80;89.80;;;;;;4993656;28;20222;-83
2020/12/20 05:03:14;;;;;;;9.52;8.40;;;7.90;89.50;;;;;;4993955;28;20205;-83
2020/12/20 05:05:42;;;;;;;10.27;9.25;;;7.80;89.60;;;;;;4993098;28;20198;-83
2020/12/20 05:08:11;;;;;;;9.77;8.77;;;7.80;89.20;;;;;;4992508;28;20209;-83
2020/12/20 05:10:40;;;;;;;9.23;8.32;;;7.80;88.80;;;;;;4993207;28;20225;-83
2020/12/20 05:13:09;;;;;;;9.35;8.52;;;7.80;88.70;;;;;;4993113;28;20285;-83
2020/12/20 05:15:37;;;;;;;11.02;9.25;;;7.90;88.60;;;;;;4992573;28;20283;-83
2020/12/20 05:18:05;;;;;;;11.23;10.13;;;7.70;88.50;;;;;;4993083;28;20202;-83
2020/12/20 05:20:38;;;;;;;9.65;8.68;;;7.80;88.40;;;;;;4992992;28;20226;-83
2020/12/20 05:23:06;;;;;;;10.88;8.27;;;7.90;88.60;;;;;;4993099;28;20199;-83
2020/12/20 05:25:35;;;;;;;9.77;8.75;;;7.60;87.80;;;;;;4989315;28;20282;-84
2020/12/20 05:28:13;;;;;;;9.73;8.73;;;7.70;88.40;;;;;;4993006;28;20186;-83
2020/12/20 05:30:44;;;;;;;10.00;9.10;;;7.60;88.10;;;;;;4993054;28;20697;-83
2020/12/20 05:33:24;;;;;;;10.57;8.55;;;7.50;88.60;;;;;;4993642;28;20205;-83
2020/12/20 05:35:57;;;;;;;9.45;8.55;;;7.60;88.90;;;;;;4991783;28;20209;-83
2020/12/20 05:38:24;;;;;;;9.75;8.75;;;7.50;89.20;;;;;;4993301;28;20659;-83
2020/12/20 05:40:51;;;;;;;9.52;8.52;;;7.60;89.60;;;;;;4992639;28;20333;-83
2020/12/20 05:43:23;;;;;;;9.90;8.77;;;7.60;88.50;;;;;;4992748;28;20194;-83
2020/12/20 05:45:50;;;;;;;10.27;9.02;;;7.60;88.60;;;;;;4992105;28;20202;-83
2020/12/20 05:48:18;;;;;;;9.20;8.20;;;7.60;88.60;;;;;;4992189;28;20225;-83
2020/12/20 05:50:51;;;;;;;11.20;8.88;;;7.60;88.40;;;;;;4991668;28;20539;-83
2020/12/20 05:53:23;;;;;;;9.88;8.75;;;7.70;88.60;;;;;;4992786;28;20659;-83
2020/12/20 05:55:51;;;;;;;10.30;9.02;;;7.60;89.10;;;;;;4992389;28;20194;-83
2020/12/20 05:58:19;;;;;;;9.45;8.45;;;7.70;88.20;;;;;;4992735;28;20196;-83
2020/12/20 06:00:47;;;;;;;8.93;8.13;;;7.60;88.30;;;;;;4991756;28;20244;-83
2020/12/20 06:03:16;;;;;;;9.88;8.50;;;8.20;88.70;;;;;;4992849;28;20198;-83
2020/12/20 06:05:45;;;;;;;13.88;8.20;;;7.50;88.30;;;;;;4992060;28;20217;-83
2020/12/20 06:08:13;;;;;;;10.52;8.05;;;7.50;88.80;;;;;;4991416;28;20194;-83
2020/12/20 06:10:42;;;;;;;11.15;8.23;;;7.40;89.10;;;;;;4992775;28;20217;-84
2020/12/20 06:13:11;;;;;;;9.45;8.20;;;8.00;89.90;;;;;;4991819;28;20220;-83
2020/12/20 06:15:41;;;;;;;13.93;7.97;;;7.70;90.00;;;;;;4991638;28;20210;-83
2020/12/20 06:18:14;;;;;;;9.25;8.15;;;7.50;88.70;;;;;;4992236;28;20206;-83
2020/12/20 06:20:53;;;;;;;9.02;8.23;;;7.50;88.50;;;;;;4992326;28;20313;-83
2020/12/20 06:23:22;;;;;;;8.77;7.88;;;7.50;88.60;;;;;;4992614;28;20194;-83
2020/12/20 06:25:50;;;;;;;10.40;9.30;;;7.50;89.50;;;;;;4991283;28;20198;-83
2020/12/20 06:28:19;;;;;;;8.35;7.55;;;7.40;89.40;;;;;;4992056;28;20368;-83
2020/12/20 06:30:46;;;;;;;9.80;8.55;;;7.50;88.30;;;;;;4991920;28;20194;-83
2020/12/20 06:33:33;;;;;;;9.45;8.50;;;7.50;88.30;;;;;;4992383;28;20616;-83
2020/12/20 06:36:02;;;;;;;8.80;7.75;;;8.00;88.50;;;;;;4991530;28;20197;-83
2020/12/20 06:38:29;;;;;;;11.60;7.65;;;7.50;88.00;;;;;;4991332;28;20236;-82
2020/12/20 06:40:55;;;;;;;8.85;8.15;;;7.50;88.00;;;;;;4990795;28;20309;-83
2020/12/20 06:43:29;;;;;;;10.20;8.45;;;7.50;87.60;;;;;;4991314;28;20194;-83
2020/12/20 06:45:56;;;;;;;8.90;7.53;;;7.50;87.50;;;;;;4991727;28;20565;-83
2020/12/20 06:48:34;;;;;;;10.00;8.73;;;7.40;87.50;;;;;;4991167;28;20667;-83
2020/12/20 06:51:02;;;;;;;10.63;8.43;;;7.40;87.90;;;;;;4991367;28;20672;-83
2020/12/20 06:53:49;;;;;;;8.20;7.35;;;7.40;87.80;;;;;;4990500;28;20237;-82
2020/12/20 06:56:16;;;;;;;9.27;8.48;;;7.30;88.10;;;;;;4989702;28;20194;-83
2020/12/20 06:58:43;;;;;;;11.20;8.43;;;7.70;88.80;;;;;;4991154;28;20202;-82
2020/12/20 07:01:10;;;;;;;9.13;7.82;;;7.10;88.10;;;;;;4990619;28;20249;-83
2020/12/20 07:03:40;;;;;;;10.30;8.38;;;7.10;88.80;;;;;;4990894;28;20198;-83
2020/12/20 07:06:11;;;;;;;13.45;7.90;;;8.00;89.50;;;;;;4991859;28;20210;-83
2020/12/20 07:08:38;;;;;;;8.95;8.10;;;7.20;88.50;;;;;;4989767;28;20221;-82
2020/12/20 07:11:06;;;;;;;15.15;7.85;;;7.60;89.70;;;;;;4990438;28;20699;-82
2020/12/20 07:13:34;;;;;;;9.32;7.90;;;7.30;89.40;;;;;;4990154;28;20240;-83
2020/12/20 07:16:07;;;;;;;11.60;8.48;;;7.30;88.60;;;;;;4990749;28;20287;-83
2020/12/20 07:18:47;;;;;;;9.95;8.95;;;7.30;88.90;;;;;;4990752;28;20233;-83
2020/12/20 07:21:55;;;;;;;8.60;7.35;;;7.30;88.90;;;;;;4991193;28;20230;-83
2020/12/20 07:24:24;;;;;;;9.32;8.15;;;7.30;88.70;;;;;;4978294;28;20200;-83
2020/12/20 07:26:53;;;;;;;9.13;7.82;;;7.40;89.50;;;;;;4991695;28;20223;-83
2020/12/20 07:29:20;;;;;;;8.55;7.50;;;7.30;89.10;;;;;;4990000;28;20222;-83
2020/12/20 07:31:50;;;;;;;10.15;7.95;;;7.40;88.30;;;;;;4990639;28;20229;-83
2020/12/20 07:34:17;;;;;;;9.35;8.50;;;7.40;88.60;;;;;;4989921;28;20706;-83
2020/12/20 07:36:43;;;;;;;8.88;8.07;;;7.30;89.10;;;;;;4990996;28;20668;-83
2020/12/20 07:39:11;;;;;;;8.95;7.75;;;7.40;89.40;;;;;;4990528;28;20198;-83
2020/12/20 07:41:37;;;;;;;9.23;7.40;;;7.40;89.10;;;;;;4990445;28;20308;-83
2020/12/20 07:44:05;;;;;;;7.78;7.07;;;7.50;88.60;;;;;;4990063;28;20198;-85
2020/12/20 07:46:31;;;;;;;9.55;8.15;;;7.40;88.60;;;;;;4990863;28;20202;-85
2020/12/20 07:49:03;;;;;;;10.00;8.20;;;7.50;88.90;;;;;;4990588;28;20523;-84
2020/12/20 07:51:30;;;;;;;9.50;8.57;;;7.60;88.70;;;;;;4990539;28;20675;-85
2020/12/20 07:53:58;;;;;;;10.65;8.10;;;7.60;88.60;;;;;;4990454;28;20792;-85
2020/12/20 07:56:26;;;;;;;11.20;7.68;;;7.60;88.40;;;;;;4990766;28;20245;-85
2020/12/20 07:58:54;;;;;;;10.18;8.68;;;7.70;87.80;;;;;;4991158;28;20281;-86
2020/12/20 08:01:20;;;;;;;9.07;8.18;;;7.80;87.80;;;;;;4991239;28;20221;-85
2020/12/20 08:03:47;;;;;;;9.27;8.13;;;7.80;87.40;;;;;;4988676;28;20198;-84
2020/12/20 08:06:15;;;;;;;9.57;8.30;;;7.80;87.50;;;;;;4989405;28;20268;-86
2020/12/20 08:08:44;;;;;;;7.65;6.95;;;7.80;87.60;;;;;;4989004;28;20301;-85
2020/12/20 08:11:19;;;;;;;10.30;8.45;;;7.90;87.30;;;;;;4989963;28;20676;-85
2020/12/20 08:13:53;;;;;;;8.40;7.40;;;7.90;87.40;;;;;;4990613;28;20283;-84
2020/12/20 08:16:23;;;;;;;8.43;7.53;;;7.90;87.30;;;;;;4992121;28;20237;-85
2020/12/20 08:18:59;;;;;;;9.18;8.32;;;7.90;87.70;;;;;;4993735;28;20706;-85
2020/12/20 08:21:50;;;;;;;8.40;7.55;;;8.00;87.50;;;;;;4974321;28;20269;-85
2020/12/20 08:24:20;;;;;;;8.40;7.50;;;7.90;87.60;;;;;;4980636;28;20202;-85
2020/12/20 08:26:48;;;;;;;9.07;8.25;;;8.40;88.00;;;;;;4993644;28;20308;-85
2020/12/20 08:29:17;;;;;;;9.00;8.10;;;8.00;87.40;;;;;;4993643;28;20240;-86
2020/12/20 08:31:44;;;;;;;10.60;7.82;;;8.00;87.10;;;;;;4994227;28;21094;-85
2020/12/20 08:34:15;;;;;;;8.30;7.50;;;8.10;87.20;;;;;;4991558;28;20252;-85
2020/12/20 08:36:43;;;;;;;9.30;8.20;;;8.10;86.90;;;;;;4973824;28;20206;-86
2020/12/20 08:39:10;;;;;;;8.43;7.40;;;8.20;87.10;;;;;;4983953;28;20204;-86
2020/12/20 08:41:37;;;;;;;9.63;8.63;;;8.20;87.10;;;;;;4992877;28;20230;-85
2020/12/20 08:44:05;;;;;;;10.00;8.70;;;8.20;86.80;;;;;;4991586;28;20202;-85
2020/12/20 08:46:33;;;;;;;9.57;8.57;;;8.20;87.40;;;;;;4993522;28;20218;-85
2020/12/20 08:49:17;;;;;;;8.30;7.53;;;8.00;86.60;;;;;;4993426;28;20668;-85
2020/12/20 08:51:44;;;;;;;9.50;8.60;;;8.10;87.10;;;;;;4992563;28;20761;-86
2020/12/20 08:54:11;;;;;;;9.07;7.65;;;8.20;87.30;;;;;;4991950;28;20221;-86
2020/12/20 08:57:05;;;;;;;9.10;8.05;;;8.10;87.10;;;;;;4992576;28;20644;-85
2020/12/20 08:59:34;;;;;;;8.90;8.02;;;8.20;87.30;;;;;;4978473;28;20198;-86
2020/12/20 09:02:02;;;;;;;8.77;7.68;;;8.10;87.50;;;;;;4991822;28;20248;-85
2020/12/20 09:04:29;;;;;;;8.95;7.10;;;8.20;87.50;;;;;;4991168;28;20229;-86
2020/12/20 09:07:00;;;;;;;10.00;7.60;;;8.20;87.70;;;;;;4992701;28;20217;-84
2020/12/20 09:09:27;;;;;;;9.98;8.98;;;8.20;87.50;;;;;;4990745;28;20275;-84
2020/12/20 09:11:54;;;;;;;9.00;8.10;;;8.30;87.60;;;;;;4993178;28;20202;-85
2020/12/20 09:14:21;;;;;;;8.93;7.93;;;8.30;87.60;;;;;;4988283;28;20252;-84
2020/12/20 09:16:48;;;;;;;8.30;7.40;;;8.50;87.50;;;;;;4992263;28;20257;-85
2020/12/20 09:19:15;;;;;;;8.77;7.72;;;8.60;87.50;;;;;;4992497;28;20194;-84
2020/12/20 09:21:42;;;;;;;8.55;7.68;;;8.60;87.00;;;;;;4992951;28;20296;-84
2020/12/20 09:24:08;;;;;;;8.38;7.57;;;8.70;86.70;;;;;;4991877;28;20230;-84
2020/12/20 09:26:34;;;;;;;8.93;8.02;;;8.70;87.00;;;;;;4992721;28;20198;-84
2020/12/20 09:29:07;;;;;;;9.70;8.52;;;8.80;87.00;;;;;;4991150;28;20195;-84
2020/12/20 09:31:34;;;;;;;9.02;8.15;;;9.00;86.80;;;;;;4973897;28;20269;-84
2020/12/20 09:34:02;;;;;;;8.63;7.78;;;9.10;86.10;;;;;;4992475;28;20194;-85
2020/12/20 09:36:29;;;;;;;8.50;7.75;;;9.50;86.20;;;;;;4992466;28;20285;-85
2020/12/20 09:39:01;;;;;;;10.82;8.85;;;9.20;85.80;;;;;;4992555;28;20210;-84
2020/12/20 09:41:29;;;;;;;8.73;7.93;;;9.20;86.50;;;;;;4992544;28;20226;-84
2020/12/20 09:43:56;;;;;;;10.00;8.63;;;9.30;86.10;;;;;;4991924;28;20224;-84
2020/12/20 09:46:25;;;;;;;10.80;9.70;;;9.30;86.30;;;;;;4993260;28;20196;-84
2020/12/20 09:48:54;;;;;;;9.18;8.27;;;9.50;85.80;;;;;;4992098;28;20624;-85
2020/12/20 09:51:21;;;;;;;8.98;8.05;;;9.60;85.60;;;;;;4991441;28;20227;-85
2020/12/20 09:53:48;;;;;;;9.73;8.80;;;9.60;85.30;;;;;;4991979;28;20582;-85
2020/12/20 09:56:14;;;;;;;9.52;8.15;;;9.70;85.10;;;;;;4992525;28;20272;-85
2020/12/20 09:58:41;;;;;;;9.20;8.30;;;9.70;84.80;;;;;;4992117;28;20236;-85
2020/12/20 10:01:07;;;;;;;11.00;9.38;;;9.70;85.30;;;;;;4992547;28;21086;-85
2020/12/20 10:03:33;;;;;;;10.68;9.68;;;9.80;85.30;;;;;;4989927;28;20786;-84
2020/12/20 10:06:01;;;;;;;10.47;9.07;;;9.90;85.30;;;;;;4991034;28;20638;-85
2020/12/20 10:08:27;;;;;;;12.53;10.20;;;10.10;84.10;;;;;;4990334;28;20632;-84
2020/12/20 10:10:54;;;;;;;11.30;9.30;;;10.20;83.70;;;;;;4985815;28;20835;-84
2020/12/20 10:13:21;;;;;;;11.20;10.00;;;10.30;83.30;;;;;;4988537;28;20636;-84
2020/12/20 10:15:48;;;;;;;11.27;10.03;;;10.40;83.10;;;;;;4990141;28;21185;-85
2020/12/20 10:18:15;;;;;;;10.57;9.47;;;10.40;83.00;;;;;;4991583;28;20684;-85
2020/12/20 10:20:41;;;;;;;12.40;10.47;;;10.40;82.90;;;;;;4991365;28;20680;-85
2020/12/20 10:23:10;;;;;;;13.17;9.90;;;10.40;82.90;;;;;;4985456;28;20668;-84
2020/12/20 10:25:36;;;;;;;12.23;9.40;;;10.40;83.20;;;;;;4990459;28;20625;-85
2020/12/20 10:28:03;;;;;;;12.50;10.07;;;10.40;83.30;;;;;;4992059;28;20684;-85
2020/12/20 10:30:29;;;;;;;13.43;12.03;;;10.30;83.20;;;;;;4990690;28;20700;-85
2020/12/20 10:32:56;;;;;;;11.07;9.97;;;10.40;83.60;;;;;;4989638;28;20637;-83
2020/12/20 10:35:24;;;;;;;13.13;11.30;;;10.40;83.60;;;;;;4987186;28;20695;-84
2020/12/20 10:37:51;;;;;;;16.83;11.13;;;10.50;83.40;;;;;;4988980;28;20633;-85
2020/12/20 10:40:19;;;;;;;12.70;10.43;;;10.50;83.30;;;;;;4990751;28;20679;-84
2020/12/20 10:42:46;;;;;;;20.60;11.70;;;10.60;83.50;;;;;;4991552;28;20664;-85
2020/12/20 10:45:12;;;;;;;17.80;12.70;;;10.50;83.50;;;;;;4990492;28;20937;-85
2020/12/20 10:47:39;;;;;;;14.33;11.60;;;10.60;83.90;;;;;;4991766;28;21079;-85
2020/12/20 10:50:05;;;;;;;17.70;11.33;;;10.60;83.80;;;;;;4991772;28;20632;-85
2020/12/20 10:52:32;;;;;;;13.97;11.03;;;10.60;83.80;;;;;;4988799;28;20629;-84
2020/12/20 10:54:59;;;;;;;9.40;8.40;;;10.70;83.60;;;;;;4989470;28;20633;-84
2020/12/20 10:57:27;;;;;;;16.80;10.63;;;10.70;83.30;;;;;;4991090;28;20633;-85
2020/12/20 10:59:53;;;;;;;10.90;9.70;;;10.80;84.90;;;;;;4991354;28;21206;-85
2020/12/20 11:02:20;;;;;;;13.80;10.40;;;10.80;84.00;;;;;;4987685;28;20951;-85
2020/12/20 11:04:47;;;;;;;12.57;11.23;;;10.90;84.40;;;;;;4990625;28;20981;-85
2020/12/20 11:07:14;;;;;;;11.70;10.60;;;11.00;84.40;;;;;;4990796;28;21193;-85
2020/12/20 11:09:41;;;;;;;11.67;10.33;;;11.10;84.00;;;;;;4988495;28;20719;-85
2020/12/20 11:12:07;;;;;;;11.57;9.90;;;11.20;84.20;;;;;;4991777;28;20691;-85
2020/12/20 11:14:35;;;;;;;11.97;10.60;;;11.30;83.60;;;;;;4989991;28;20646;-85
2020/12/20 11:17:02;;;;;;;10.23;9.20;;;11.50;83.00;;;;;;4991020;28;20661;-85
2020/12/20 11:19:29;;;;;;;14.77;9.30;;;11.60;82.50;;;;;;4989978;28;20661;-85
2020/12/20 11:21:56;;;;;;;13.00;10.50;;;11.70;82.30;;;;;;4990811;28;20762;-85
2020/12/20 11:24:24;;;;;;;9.33;8.37;;;11.80;82.10;;;;;;4980306;28;20633;-85
2020/12/20 11:26:52;;;;;;;9.73;8.73;;;11.80;81.60;;;;;;4991235;28;20648;-86
2020/12/20 11:29:19;;;;;;;10.70;9.03;;;11.90;81.80;;;;;;4989936;28;20609;-85
2020/12/20 11:31:46;;;;;;;10.60;9.37;;;11.90;81.40;;;;;;4995384;28;20632;-85
2020/12/20 11:34:14;;;;;;;8.83;8.03;;;12.00;81.60;;;;;;4989196;28;20685;-84
2020/12/20 11:36:41;;;;;;;8.73;8.00;;;12.00;81.30;;;;;;4990654;28;20621;-84
2020/12/20 11:39:09;;;;;;;11.10;8.87;;;12.00;81.30;;;;;;4990415;28;20621;-84
2020/12/20 11:41:36;;;;;;;9.13;8.23;;;12.20;81.50;;;;;;4990301;28;21174;-84
2020/12/20 11:44:02;;;;;;;9.00;8.17;;;12.30;81.00;;;;;;4989499;28;20649;-84
2020/12/20 11:46:29;;;;;;;10.90;7.80;;;12.40;81.50;;;;;;4990157;28;20668;-84
2020/12/20 11:48:57;;;;;;;8.30;7.50;;;12.40;80.60;;;;;;4988150;28;21043;-84
2020/12/20 11:51:26;;;;;;;8.83;8.00;;;12.50;80.90;;;;;;4987501;28;20990;-84
2020/12/20 11:53:53;;;;;;;11.20;8.20;;;12.50;81.00;;;;;;4984671;28;20626;-84
2020/12/20 11:56:20;;;;;;;9.00;8.13;;;12.60;80.10;;;;;;4990401;28;20625;-84
2020/12/20 11:58:46;;;;;;;8.13;7.43;;;12.70;79.80;;;;;;4989921;28;21237;-83
2020/12/20 12:01:13;;;;;;;8.43;7.00;;;12.70;80.00;;;;;;4973728;28;20649;-84
2020/12/20 12:03:39;;;;;;;7.63;6.93;;;12.70;79.80;;;;;;4989661;28;20609;-84
2020/12/20 12:06:07;;;;;;;7.30;6.50;;;12.70;79.70;;;;;;4990094;28;20628;-85
2020/12/20 12:08:33;;;;;;;11.27;6.80;;;12.80;80.10;;;;;;4989105;28;21017;-84
2020/12/20 12:11:00;;;;;;;7.40;6.50;;;12.80;79.40;;;;;;4985877;28;20670;-83
2020/12/20 12:13:26;;;;;;;9.43;6.80;;;12.70;79.40;;;;;;4979419;28;20635;-84
2020/12/20 12:15:53;;;;;;;14.43;7.47;;;12.90;80.10;;;;;;4988466;28;20631;-85
2020/12/20 12:18:19;;;;;;;8.27;6.57;;;12.90;79.80;;;;;;4989810;28;20640;-84
2020/12/20 12:20:45;;;;;;;10.23;8.50;;;13.00;79.60;;;;;;4989286;28;20657;-85
2020/12/20 12:23:13;;;;;;;8.97;8.10;;;13.00;80.20;;;;;;4990501;28;20598;-84
2020/12/20 12:25:39;;;;;;;9.03;8.10;;;13.00;80.00;;;;;;4988986;28;21019;-84
2020/12/20 12:28:06;;;;;;;10.03;8.00;;;13.00;79.90;;;;;;4990177;28;20685;-84
2020/12/20 12:30:35;;;;;;;11.60;8.57;;;13.00;80.40;;;;;;4989182;28;20734;-84
2020/12/20 12:33:02;;;;;;;8.90;8.00;;;13.00;80.50;;;;;;4990164;28;20625;-85
2020/12/20 12:35:28;;;;;;;11.77;7.97;;;12.90;80.40;;;;;;4988563;28;20634;-85
2020/12/20 12:37:54;;;;;;;8.50;7.67;;;12.80;80.60;;;;;;4990265;28;20712;-84
2020/12/20 12:40:22;;;;;;;13.10;8.60;;;12.70;81.20;;;;;;4989439;28;20990;-85
2020/12/20 12:42:49;;;;;;;10.13;9.10;;;12.60;81.60;;;;;;4989462;28;20641;-84
2020/12/20 12:45:18;;;;;;;9.13;8.23;;;12.60;82.10;;;;;;4988176;28;20626;-84
2020/12/20 12:47:44;;;;;;;8.90;8.03;;;12.60;82.50;;;;;;4988700;28;20680;-85
2020/12/20 12:50:11;;;;;;;9.17;8.37;;;12.60;82.80;;;;;;4988683;28;20631;-85
2020/12/20 12:52:37;;;;;;;12.73;10.27;;;12.50;83.10;;;;;;4989729;28;20625;-84